sensor_id;sensor_type;location;lat;lon;timestamp;P1;durP1;ratioP1;P2;durP2;ratioP2
17228;SDS011;8731;50.364;8.958;2023-04-24T00:03:46;1.97;;;0.80;;
17228;SDS011;8731;50.364;8.958;2023-04-24T00:08:08;2.50;;;1.03;;
17228;SDS011;8731;50.364;8.958;2023-04-24T00:12:31;2.77;;;0.73;;
17228;SDS011;8731;50.364;8.958;2023-04-24T00:16:54;1.80;;;0.80;;
17228;SDS011;8731;50.364;8.958;2023-04-24T00:21:16;2.10;;;0.80;;
17228;SDS011;8731;50.364;8.958;2023-04-24T00:25:40;3.40;;;1.10;;
17228;SDS011;8731;50.364;8.958;2023-04-24T00:30:03;2.80;;;1.10;;
17228;SDS011;8731;50.364;8.958;2023-04-24T00:34:28;1.63;;;1.10;;
17228;SDS011;8731;50.364;8.958;2023-04-24T00:38:52;1.50;;;1.00;;
17228;SDS011;8731;50.364;8.958;2023-04-24T00:43:15;3.33;;;1.10;;
17228;SDS011;8731;50.364;8.958;2023-04-24T00:47:37;3.30;;;1.20;;
17228;SDS011;8731;50.364;8.958;2023-04-24T00:52:02;2.27;;;0.90;;
17228;SDS011;8731;50.364;8.958;2023-04-24T00:56:27;1.47;;;0.80;;
17228;SDS011;8731;50.364;8.958;2023-04-24T01:00:50;2.17;;;0.83;;
17228;SDS011;8731;50.364;8.958;2023-04-24T01:05:15;1.70;;;0.63;;
17228;SDS011;8731;50.364;8.958;2023-04-24T01:09:40;2.93;;;0.73;;
17228;SDS011;8731;50.364;8.958;2023-04-24T01:14:03;9.33;;;4.13;;
17228;SDS011;8731;50.364;8.958;2023-04-24T01:18:25;1.20;;;0.80;;
17228;SDS011;8731;50.364;8.958;2023-04-24T01:22:50;1.93;;;0.80;;
17228;SDS011;8731;50.364;8.958;2023-04-24T01:27:12;2.07;;;0.80;;
17228;SDS011;8731;50.364;8.958;2023-04-24T01:31:35;0.87;;;0.77;;
17228;SDS011;8731;50.364;8.958;2023-04-24T01:35:58;2.37;;;0.83;;
17228;SDS011;8731;50.364;8.958;2023-04-24T01:40:22;2.43;;;1.07;;
17228;SDS011;8731;50.364;8.958;2023-04-24T01:44:45;1.87;;;0.83;;
17228;SDS011;8731;50.364;8.958;2023-04-24T01:49:08;1.67;;;1.00;;
17228;SDS011;8731;50.364;8.958;2023-04-24T01:53:30;1.63;;;0.90;;
17228;SDS011;8731;50.364;8.958;2023-04-24T01:57:54;2.03;;;0.83;;
17228;SDS011;8731;50.364;8.958;2023-04-24T02:02:18;1.13;;;0.80;;
17228;SDS011;8731;50.364;8.958;2023-04-24T02:06:41;3.03;;;0.83;;
17228;SDS011;8731;50.364;8.958;2023-04-24T02:11:03;3.03;;;1.20;;
17228;SDS011;8731;50.364;8.958;2023-04-24T02:15:27;1.53;;;0.80;;
17228;SDS011;8731;50.364;8.958;2023-04-24T02:19:50;0.93;;;0.70;;
17228;SDS011;8731;50.364;8.958;2023-04-24T02:24:12;2.53;;;0.90;;
17228;SDS011;8731;50.364;8.958;2023-04-24T02:28:35;3.80;;;0.87;;
17228;SDS011;8731;50.364;8.958;2023-04-24T02:32:59;2.33;;;1.10;;
17228;SDS011;8731;50.364;8.958;2023-04-24T02:37:22;1.17;;;0.87;;
17228;SDS011;8731;50.364;8.958;2023-04-24T02:41:44;2.93;;;0.90;;
17228;SDS011;8731;50.364;8.958;2023-04-24T02:46:07;2.13;;;1.00;;
17228;SDS011;8731;50.364;8.958;2023-04-24T02:50:31;1.70;;;0.97;;
17228;SDS011;8731;50.364;8.958;2023-04-24T02:54:53;3.70;;;0.90;;
17228;SDS011;8731;50.364;8.958;2023-04-24T02:59:16;2.40;;;1.10;;
17228;SDS011;8731;50.364;8.958;2023-04-24T03:03:38;2.63;;;0.90;;
17228;SDS011;8731;50.364;8.958;2023-04-24T03:08:02;1.67;;;0.80;;
17228;SDS011;8731;50.364;8.958;2023-04-24T03:12:25;1.37;;;0.90;;
17228;SDS011;8731;50.364;8.958;2023-04-24T03:16:47;2.77;;;0.93;;
17228;SDS011;8731;50.364;8.958;2023-04-24T03:21:10;1.10;;;0.80;;
17228;SDS011;8731;50.364;8.958;2023-04-24T03:25:35;1.67;;;0.97;;
17228;SDS011;8731;50.364;8.958;2023-04-24T03:29:58;2.50;;;1.00;;
17228;SDS011;8731;50.364;8.958;2023-04-24T03:34:41;5.87;;;1.40;;
17228;SDS011;8731;50.364;8.958;2023-04-24T03:39:06;4.10;;;1.57;;
17228;SDS011;8731;50.364;8.958;2023-04-24T03:43:32;3.27;;;0.90;;
17228;SDS011;8731;50.364;8.958;2023-04-24T03:47:55;3.33;;;1.00;;
17228;SDS011;8731;50.364;8.958;2023-04-24T03:52:19;1.80;;;1.00;;
17228;SDS011;8731;50.364;8.958;2023-04-24T03:56:41;2.00;;;1.10;;
17228;SDS011;8731;50.364;8.958;2023-04-24T04:01:05;1.47;;;0.80;;
17228;SDS011;8731;50.364;8.958;2023-04-24T04:05:45;3.73;;;1.30;;
17228;SDS011;8731;50.364;8.958;2023-04-24T04:10:08;2.20;;;1.10;;
17228;SDS011;8731;50.364;8.958;2023-04-24T04:14:32;4.70;;;0.90;;
17228;SDS011;8731;50.364;8.958;2023-04-24T04:18:57;1.87;;;0.80;;
17228;SDS011;8731;50.364;8.958;2023-04-24T04:23:20;1.63;;;1.30;;
17228;SDS011;8731;50.364;8.958;2023-04-24T04:28:12;1.83;;;1.60;;
17228;SDS011;8731;50.364;8.958;2023-04-24T04:32:39;3.67;;;1.40;;
17228;SDS011;8731;50.364;8.958;2023-04-24T04:37:03;3.60;;;1.47;;
17228;SDS011;8731;50.364;8.958;2023-04-24T04:46:17;4.23;;;1.00;;
17228;SDS011;8731;50.364;8.958;2023-04-24T04:50:59;2.00;;;1.20;;
17228;SDS011;8731;50.364;8.958;2023-04-24T04:55:25;1.87;;;0.90;;
17228;SDS011;8731;50.364;8.958;2023-04-24T05:00:08;2.13;;;0.90;;
17228;SDS011;8731;50.364;8.958;2023-04-24T05:04:40;2.47;;;0.90;;
17228;SDS011;8731;50.364;8.958;2023-04-24T05:09:02;3.20;;;1.57;;
17228;SDS011;8731;50.364;8.958;2023-04-24T05:13:33;3.33;;;1.10;;
17228;SDS011;8731;50.364;8.958;2023-04-24T05:17:59;3.77;;;1.67;;
17228;SDS011;8731;50.364;8.958;2023-04-24T05:22:22;3.53;;;1.50;;
17228;SDS011;8731;50.364;8.958;2023-04-24T05:26:46;1.87;;;1.07;;
17228;SDS011;8731;50.364;8.958;2023-04-24T05:31:14;2.03;;;1.10;;
17228;SDS011;8731;50.364;8.958;2023-04-24T05:35:38;2.67;;;1.00;;
17228;SDS011;8731;50.364;8.958;2023-04-24T05:40:07;1.97;;;1.03;;
17228;SDS011;8731;50.364;8.958;2023-04-24T05:49:19;2.93;;;1.67;;
17228;SDS011;8731;50.364;8.958;2023-04-24T05:53:42;1.60;;;1.00;;
17228;SDS011;8731;50.364;8.958;2023-04-24T06:02:41;1.33;;;1.20;;
17228;SDS011;8731;50.364;8.958;2023-04-24T06:07:07;2.40;;;1.60;;
17228;SDS011;8731;50.364;8.958;2023-04-24T06:11:33;2.20;;;1.73;;
17228;SDS011;8731;50.364;8.958;2023-04-24T06:15:56;2.07;;;1.47;;
17228;SDS011;8731;50.364;8.958;2023-04-24T06:20:28;6.07;;;2.67;;
17228;SDS011;8731;50.364;8.958;2023-04-24T06:24:53;4.23;;;2.17;;
17228;SDS011;8731;50.364;8.958;2023-04-24T06:29:15;4.13;;;2.50;;
17228;SDS011;8731;50.364;8.958;2023-04-24T06:33:37;5.00;;;3.60;;
17228;SDS011;8731;50.364;8.958;2023-04-24T06:38:00;4.13;;;3.13;;
17228;SDS011;8731;50.364;8.958;2023-04-24T06:42:23;3.70;;;2.97;;
17228;SDS011;8731;50.364;8.958;2023-04-24T06:46:46;2.97;;;2.33;;
17228;SDS011;8731;50.364;8.958;2023-04-24T06:51:08;3.43;;;2.80;;
17228;SDS011;8731;50.364;8.958;2023-04-24T06:55:30;2.57;;;1.87;;
17228;SDS011;8731;50.364;8.958;2023-04-24T06:59:54;2.43;;;2.23;;
17228;SDS011;8731;50.364;8.958;2023-04-24T07:04:17;4.37;;;2.77;;
17228;SDS011;8731;50.364;8.958;2023-04-24T07:08:39;2.80;;;2.60;;
17228;SDS011;8731;50.364;8.958;2023-04-24T07:13:02;3.33;;;2.20;;
17228;SDS011;8731;50.364;8.958;2023-04-24T07:17:28;3.17;;;2.70;;
17228;SDS011;8731;50.364;8.958;2023-04-24T07:21:50;3.00;;;2.67;;
17228;SDS011;8731;50.364;8.958;2023-04-24T07:26:13;3.57;;;2.60;;
17228;SDS011;8731;50.364;8.958;2023-04-24T07:30:36;2.90;;;2.50;;
17228;SDS011;8731;50.364;8.958;2023-04-24T07:34:59;3.67;;;2.50;;
17228;SDS011;8731;50.364;8.958;2023-04-24T07:39:21;2.20;;;1.97;;
17228;SDS011;8731;50.364;8.958;2023-04-24T07:43:46;3.27;;;2.70;;
17228;SDS011;8731;50.364;8.958;2023-04-24T07:48:08;3.50;;;2.30;;
17228;SDS011;8731;50.364;8.958;2023-04-24T07:52:32;3.17;;;2.30;;
17228;SDS011;8731;50.364;8.958;2023-04-24T07:56:54;2.50;;;2.07;;
17228;SDS011;8731;50.364;8.958;2023-04-24T08:01:17;2.50;;;2.10;;
17228;SDS011;8731;50.364;8.958;2023-04-24T08:05:39;3.07;;;1.97;;
17228;SDS011;8731;50.364;8.958;2023-04-24T08:10:05;3.57;;;2.27;;
17228;SDS011;8731;50.364;8.958;2023-04-24T08:14:28;2.93;;;2.43;;
17228;SDS011;8731;50.364;8.958;2023-04-24T08:18:51;2.00;;;1.50;;
17228;SDS011;8731;50.364;8.958;2023-04-24T08:23:14;2.77;;;1.77;;
17228;SDS011;8731;50.364;8.958;2023-04-24T08:27:37;2.23;;;1.50;;
17228;SDS011;8731;50.364;8.958;2023-04-24T08:32:00;2.07;;;1.87;;
17228;SDS011;8731;50.364;8.958;2023-04-24T08:36:22;1.70;;;1.60;;
17228;SDS011;8731;50.364;8.958;2023-04-24T08:40:45;3.33;;;2.13;;
17228;SDS011;8731;50.364;8.958;2023-04-24T08:45:11;4.60;;;1.90;;
17228;SDS011;8731;50.364;8.958;2023-04-24T08:49:35;1.80;;;1.70;;
17228;SDS011;8731;50.364;8.958;2023-04-24T08:53:59;4.13;;;2.43;;
17228;SDS011;8731;50.364;8.958;2023-04-24T08:58:22;4.17;;;2.00;;
17228;SDS011;8731;50.364;8.958;2023-04-24T09:02:50;2.00;;;1.80;;
17228;SDS011;8731;50.364;8.958;2023-04-24T09:07:14;1.80;;;1.70;;
17228;SDS011;8731;50.364;8.958;2023-04-24T09:11:39;5.77;;;2.37;;
17228;SDS011;8731;50.364;8.958;2023-04-24T09:16:02;2.87;;;1.93;;
17228;SDS011;8731;50.364;8.958;2023-04-24T09:20:26;3.33;;;1.80;;
17228;SDS011;8731;50.364;8.958;2023-04-24T09:24:48;1.80;;;1.70;;
17228;SDS011;8731;50.364;8.958;2023-04-24T09:29:24;3.10;;;2.90;;
17228;SDS011;8731;50.364;8.958;2023-04-24T09:33:53;2.30;;;2.00;;
17228;SDS011;8731;50.364;8.958;2023-04-24T09:38:18;3.37;;;2.60;;
17228;SDS011;8731;50.364;8.958;2023-04-24T09:42:44;2.37;;;2.10;;
17228;SDS011;8731;50.364;8.958;2023-04-24T09:47:13;2.90;;;2.10;;
17228;SDS011;8731;50.364;8.958;2023-04-24T09:51:38;3.40;;;1.90;;
17228;SDS011;8731;50.364;8.958;2023-04-24T09:56:07;3.03;;;2.00;;
17228;SDS011;8731;50.364;8.958;2023-04-24T10:00:32;2.33;;;2.13;;
17228;SDS011;8731;50.364;8.958;2023-04-24T10:04:55;2.77;;;2.10;;
17228;SDS011;8731;50.364;8.958;2023-04-24T10:09:20;2.47;;;2.10;;
17228;SDS011;8731;50.364;8.958;2023-04-24T10:13:45;4.57;;;2.90;;
17228;SDS011;8731;50.364;8.958;2023-04-24T10:18:08;2.43;;;2.07;;
17228;SDS011;8731;50.364;8.958;2023-04-24T10:22:32;3.50;;;2.67;;
17228;SDS011;8731;50.364;8.958;2023-04-24T10:26:56;4.93;;;2.37;;
17228;SDS011;8731;50.364;8.958;2023-04-24T10:31:20;4.47;;;1.97;;
17228;SDS011;8731;50.364;8.958;2023-04-24T10:35:45;2.40;;;1.80;;
17228;SDS011;8731;50.364;8.958;2023-04-24T10:40:11;3.43;;;1.40;;
17228;SDS011;8731;50.364;8.958;2023-04-24T10:44:39;2.83;;;2.07;;
17228;SDS011;8731;50.364;8.958;2023-04-24T10:49:04;2.00;;;1.60;;
17228;SDS011;8731;50.364;8.958;2023-04-24T10:53:29;6.07;;;4.43;;
17228;SDS011;8731;50.364;8.958;2023-04-24T10:58:02;2.80;;;1.80;;
17228;SDS011;8731;50.364;8.958;2023-04-24T11:02:35;2.43;;;2.00;;
17228;SDS011;8731;50.364;8.958;2023-04-24T11:07:02;2.03;;;1.83;;
17228;SDS011;8731;50.364;8.958;2023-04-24T11:11:25;1.77;;;1.67;;
17228;SDS011;8731;50.364;8.958;2023-04-24T11:20:36;0.90;;;0.83;;
17228;SDS011;8731;50.364;8.958;2023-04-24T11:25:04;1.13;;;1.00;;
17228;SDS011;8731;50.364;8.958;2023-04-24T11:29:38;1.97;;;1.20;;
17228;SDS011;8731;50.364;8.958;2023-04-24T11:34:07;1.63;;;1.30;;
17228;SDS011;8731;50.364;8.958;2023-04-24T11:38:32;1.53;;;1.40;;
17228;SDS011;8731;50.364;8.958;2023-04-24T11:42:56;1.07;;;0.97;;
17228;SDS011;8731;50.364;8.958;2023-04-24T11:47:27;0.87;;;0.87;;
17228;SDS011;8731;50.364;8.958;2023-04-24T11:51:51;1.20;;;1.10;;
17228;SDS011;8731;50.364;8.958;2023-04-24T11:56:17;2.87;;;1.20;;
17228;SDS011;8731;50.364;8.958;2023-04-24T12:00:41;0.63;;;0.63;;
17228;SDS011;8731;50.364;8.958;2023-04-24T12:05:06;1.43;;;0.80;;
17228;SDS011;8731;50.364;8.958;2023-04-24T12:09:29;1.53;;;0.93;;
17228;SDS011;8731;50.364;8.958;2023-04-24T12:14:09;1.40;;;1.20;;
17228;SDS011;8731;50.364;8.958;2023-04-24T12:18:34;0.80;;;0.80;;
17228;SDS011;8731;50.364;8.958;2023-04-24T12:22:56;1.10;;;0.90;;
17228;SDS011;8731;50.364;8.958;2023-04-24T12:27:21;1.37;;;1.03;;
17228;SDS011;8731;50.364;8.958;2023-04-24T12:31:43;3.17;;;1.50;;
17228;SDS011;8731;50.364;8.958;2023-04-24T12:36:07;3.23;;;1.40;;
17228;SDS011;8731;50.364;8.958;2023-04-24T12:40:33;2.80;;;1.77;;
17228;SDS011;8731;50.364;8.958;2023-04-24T12:44:56;3.13;;;1.17;;
17228;SDS011;8731;50.364;8.958;2023-04-24T12:49:20;1.60;;;1.47;;
17228;SDS011;8731;50.364;8.958;2023-04-24T12:53:44;2.10;;;1.00;;
17228;SDS011;8731;50.364;8.958;2023-04-24T12:58:07;0.63;;;0.60;;
17228;SDS011;8731;50.364;8.958;2023-04-24T13:02:29;0.60;;;0.60;;
17228;SDS011;8731;50.364;8.958;2023-04-24T13:06:52;1.17;;;0.70;;
17228;SDS011;8731;50.364;8.958;2023-04-24T13:11:16;1.17;;;0.60;;
17228;SDS011;8731;50.364;8.958;2023-04-24T13:15:38;1.63;;;0.80;;
17228;SDS011;8731;50.364;8.958;2023-04-24T13:20:00;1.67;;;0.50;;
17228;SDS011;8731;50.364;8.958;2023-04-24T13:24:23;1.20;;;0.70;;
17228;SDS011;8731;50.364;8.958;2023-04-24T13:28:47;1.90;;;0.70;;
17228;SDS011;8731;50.364;8.958;2023-04-24T13:33:10;0.83;;;0.77;;
17228;SDS011;8731;50.364;8.958;2023-04-24T13:37:32;1.23;;;0.80;;
17228;SDS011;8731;50.364;8.958;2023-04-24T13:41:54;0.70;;;0.70;;
17228;SDS011;8731;50.364;8.958;2023-04-24T13:46:19;4.40;;;0.93;;
17228;SDS011;8731;50.364;8.958;2023-04-24T13:50:41;2.20;;;1.70;;
17228;SDS011;8731;50.364;8.958;2023-04-24T13:55:04;6.50;;;3.00;;
17228;SDS011;8731;50.364;8.958;2023-04-24T13:59:27;2.07;;;1.70;;
17228;SDS011;8731;50.364;8.958;2023-04-24T14:03:51;3.60;;;2.30;;
17228;SDS011;8731;50.364;8.958;2023-04-24T14:08:14;5.37;;;2.30;;
17228;SDS011;8731;50.364;8.958;2023-04-24T14:12:36;3.97;;;2.47;;
17228;SDS011;8731;50.364;8.958;2023-04-24T14:16:58;4.90;;;2.40;;
17228;SDS011;8731;50.364;8.958;2023-04-24T14:21:22;4.53;;;2.83;;
17228;SDS011;8731;50.364;8.958;2023-04-24T14:25:44;5.10;;;3.20;;
17228;SDS011;8731;50.364;8.958;2023-04-24T14:34:59;3.70;;;2.93;;
17228;SDS011;8731;50.364;8.958;2023-04-24T14:39:23;4.83;;;3.10;;
17228;SDS011;8731;50.364;8.958;2023-04-24T14:43:46;4.17;;;2.70;;
17228;SDS011;8731;50.364;8.958;2023-04-24T14:48:08;4.90;;;2.90;;
17228;SDS011;8731;50.364;8.958;2023-04-24T14:52:31;4.70;;;2.90;;
17228;SDS011;8731;50.364;8.958;2023-04-24T14:56:55;4.20;;;2.50;;
17228;SDS011;8731;50.364;8.958;2023-04-24T15:01:18;4.63;;;2.70;;
17228;SDS011;8731;50.364;8.958;2023-04-24T15:05:41;4.43;;;2.87;;
17228;SDS011;8731;50.364;8.958;2023-04-24T15:10:03;5.40;;;3.33;;
17228;SDS011;8731;50.364;8.958;2023-04-24T15:14:28;4.93;;;3.40;;
17228;SDS011;8731;50.364;8.958;2023-04-24T15:18:51;4.67;;;2.87;;
17228;SDS011;8731;50.364;8.958;2023-04-24T15:23:13;3.43;;;2.57;;
17228;SDS011;8731;50.364;8.958;2023-04-24T15:27:39;4.07;;;2.43;;
17228;SDS011;8731;50.364;8.958;2023-04-24T15:32:04;3.60;;;2.77;;
17228;SDS011;8731;50.364;8.958;2023-04-24T15:36:26;4.30;;;3.00;;
17228;SDS011;8731;50.364;8.958;2023-04-24T15:40:50;4.27;;;3.20;;
17228;SDS011;8731;50.364;8.958;2023-04-24T15:45:12;5.33;;;3.33;;
17228;SDS011;8731;50.364;8.958;2023-04-24T15:49:36;3.87;;;3.17;;
17228;SDS011;8731;50.364;8.958;2023-04-24T15:53:58;5.63;;;3.80;;
17228;SDS011;8731;50.364;8.958;2023-04-24T15:58:20;10.07;;;5.80;;
17228;SDS011;8731;50.364;8.958;2023-04-24T16:02:43;3.43;;;2.30;;
17228;SDS011;8731;50.364;8.958;2023-04-24T16:07:07;6.23;;;4.27;;
17228;SDS011;8731;50.364;8.958;2023-04-24T16:11:30;4.40;;;2.77;;
17228;SDS011;8731;50.364;8.958;2023-04-24T16:15:55;7.27;;;5.07;;
17228;SDS011;8731;50.364;8.958;2023-04-24T16:20:18;7.60;;;3.80;;
17228;SDS011;8731;50.364;8.958;2023-04-24T16:24:41;4.47;;;3.10;;
17228;SDS011;8731;50.364;8.958;2023-04-24T16:29:06;3.90;;;2.53;;
17228;SDS011;8731;50.364;8.958;2023-04-24T16:33:28;5.17;;;3.83;;
17228;SDS011;8731;50.364;8.958;2023-04-24T16:37:50;5.43;;;4.30;;
17228;SDS011;8731;50.364;8.958;2023-04-24T16:42:14;7.53;;;5.63;;
17228;SDS011;8731;50.364;8.958;2023-04-24T16:46:37;6.27;;;3.07;;
17228;SDS011;8731;50.364;8.958;2023-04-24T16:50:59;4.80;;;2.80;;
17228;SDS011;8731;50.364;8.958;2023-04-24T16:55:22;6.53;;;3.17;;
17228;SDS011;8731;50.364;8.958;2023-04-24T16:59:45;7.07;;;3.87;;
17228;SDS011;8731;50.364;8.958;2023-04-24T17:04:08;9.00;;;4.37;;
17228;SDS011;8731;50.364;8.958;2023-04-24T17:08:30;6.07;;;3.23;;
17228;SDS011;8731;50.364;8.958;2023-04-24T17:12:52;4.53;;;3.60;;
17228;SDS011;8731;50.364;8.958;2023-04-24T17:17:16;4.07;;;3.00;;
17228;SDS011;8731;50.364;8.958;2023-04-24T17:21:42;5.40;;;3.53;;
17228;SDS011;8731;50.364;8.958;2023-04-24T17:26:04;5.13;;;3.57;;
17228;SDS011;8731;50.364;8.958;2023-04-24T17:30:27;5.37;;;3.60;;
17228;SDS011;8731;50.364;8.958;2023-04-24T17:34:50;5.90;;;3.60;;
17228;SDS011;8731;50.364;8.958;2023-04-24T17:39:13;4.40;;;3.50;;
17228;SDS011;8731;50.364;8.958;2023-04-24T17:43:35;6.97;;;4.03;;
17228;SDS011;8731;50.364;8.958;2023-04-24T17:47:58;5.10;;;2.97;;
17228;SDS011;8731;50.364;8.958;2023-04-24T17:52:21;5.93;;;4.73;;
17228;SDS011;8731;50.364;8.958;2023-04-24T17:56:44;7.53;;;3.60;;
17228;SDS011;8731;50.364;8.958;2023-04-24T18:01:07;4.93;;;3.47;;
17228;SDS011;8731;50.364;8.958;2023-04-24T18:05:30;5.33;;;3.83;;
17228;SDS011;8731;50.364;8.958;2023-04-24T18:09:56;8.03;;;4.60;;
17228;SDS011;8731;50.364;8.958;2023-04-24T18:14:18;6.53;;;4.40;;
17228;SDS011;8731;50.364;8.958;2023-04-24T18:18:40;7.53;;;5.67;;
17228;SDS011;8731;50.364;8.958;2023-04-24T18:23:05;7.63;;;5.67;;
17228;SDS011;8731;50.364;8.958;2023-04-24T18:27:29;4.70;;;3.57;;
17228;SDS011;8731;50.364;8.958;2023-04-24T18:31:52;4.33;;;3.00;;
17228;SDS011;8731;50.364;8.958;2023-04-24T18:36:15;6.13;;;2.87;;
17228;SDS011;8731;50.364;8.958;2023-04-24T18:40:37;4.57;;;3.30;;
17228;SDS011;8731;50.364;8.958;2023-04-24T18:45:01;4.50;;;3.40;;
17228;SDS011;8731;50.364;8.958;2023-04-24T18:49:24;11.57;;;8.03;;
17228;SDS011;8731;50.364;8.958;2023-04-24T18:53:46;6.77;;;4.13;;
17228;SDS011;8731;50.364;8.958;2023-04-24T18:58:09;6.33;;;3.70;;
17228;SDS011;8731;50.364;8.958;2023-04-24T19:02:32;6.83;;;4.23;;
17228;SDS011;8731;50.364;8.958;2023-04-24T19:06:55;4.63;;;3.80;;
17228;SDS011;8731;50.364;8.958;2023-04-24T19:11:20;8.83;;;3.47;;
17228;SDS011;8731;50.364;8.958;2023-04-24T19:15:43;5.83;;;3.93;;
17228;SDS011;8731;50.364;8.958;2023-04-24T19:20:07;4.13;;;3.67;;
17228;SDS011;8731;50.364;8.958;2023-04-24T19:24:30;3.90;;;3.30;;
17228;SDS011;8731;50.364;8.958;2023-04-24T19:28:53;4.60;;;3.73;;
17228;SDS011;8731;50.364;8.958;2023-04-24T19:33:16;4.17;;;3.73;;
17228;SDS011;8731;50.364;8.958;2023-04-24T19:37:40;8.20;;;7.00;;
17228;SDS011;8731;50.364;8.958;2023-04-24T19:42:03;10.63;;;7.73;;
17228;SDS011;8731;50.364;8.958;2023-04-24T19:46:25;13.10;;;8.73;;
17228;SDS011;8731;50.364;8.958;2023-04-24T19:50:47;4.40;;;3.93;;
17228;SDS011;8731;50.364;8.958;2023-04-24T19:55:11;11.23;;;8.20;;
17228;SDS011;8731;50.364;8.958;2023-04-24T19:59:33;7.63;;;6.03;;
17228;SDS011;8731;50.364;8.958;2023-04-24T20:03:56;5.43;;;4.27;;
17228;SDS011;8731;50.364;8.958;2023-04-24T20:08:18;8.77;;;5.93;;
17228;SDS011;8731;50.364;8.958;2023-04-24T20:12:42;6.17;;;5.20;;
17228;SDS011;8731;50.364;8.958;2023-04-24T20:17:05;5.43;;;4.93;;
17228;SDS011;8731;50.364;8.958;2023-04-24T20:21:27;6.30;;;5.70;;
17228;SDS011;8731;50.364;8.958;2023-04-24T20:25:51;7.90;;;5.63;;
17228;SDS011;8731;50.364;8.958;2023-04-24T20:30:18;7.17;;;5.77;;
17228;SDS011;8731;50.364;8.958;2023-04-24T20:34:41;7.07;;;5.13;;
17228;SDS011;8731;50.364;8.958;2023-04-24T20:39:03;6.10;;;5.07;;
17228;SDS011;8731;50.364;8.958;2023-04-24T20:43:27;6.33;;;5.40;;
17228;SDS011;8731;50.364;8.958;2023-04-24T20:47:50;6.40;;;5.80;;
17228;SDS011;8731;50.364;8.958;2023-04-24T20:52:13;6.50;;;5.53;;
17228;SDS011;8731;50.364;8.958;2023-04-24T20:56:35;7.10;;;5.87;;
17228;SDS011;8731;50.364;8.958;2023-04-24T21:00:57;6.67;;;5.60;;
17228;SDS011;8731;50.364;8.958;2023-04-24T21:05:21;8.77;;;5.93;;
17228;SDS011;8731;50.364;8.958;2023-04-24T21:09:44;6.50;;;5.80;;
17228;SDS011;8731;50.364;8.958;2023-04-24T21:14:06;7.47;;;6.50;;
17228;SDS011;8731;50.364;8.958;2023-04-24T21:18:29;8.10;;;6.43;;
17228;SDS011;8731;50.364;8.958;2023-04-24T21:22:53;8.50;;;6.57;;
17228;SDS011;8731;50.364;8.958;2023-04-24T21:27:15;7.70;;;6.90;;
17228;SDS011;8731;50.364;8.958;2023-04-24T21:31:38;7.97;;;6.47;;
17228;SDS011;8731;50.364;8.958;2023-04-24T21:36:00;7.30;;;6.60;;
17228;SDS011;8731;50.364;8.958;2023-04-24T21:40:24;7.70;;;6.90;;
17228;SDS011;8731;50.364;8.958;2023-04-24T21:44:46;8.03;;;6.80;;
17228;SDS011;8731;50.364;8.958;2023-04-24T21:49:08;8.70;;;6.40;;
17228;SDS011;8731;50.364;8.958;2023-04-24T21:53:31;7.07;;;6.13;;
17228;SDS011;8731;50.364;8.958;2023-04-24T21:57:55;7.13;;;6.43;;
17228;SDS011;8731;50.364;8.958;2023-04-24T22:02:17;8.23;;;6.80;;
17228;SDS011;8731;50.364;8.958;2023-04-24T22:06:40;9.57;;;7.33;;
17228;SDS011;8731;50.364;8.958;2023-04-24T22:11:02;9.90;;;8.10;;
17228;SDS011;8731;50.364;8.958;2023-04-24T22:15:26;13.23;;;9.00;;
17228;SDS011;8731;50.364;8.958;2023-04-24T22:19:49;11.40;;;9.53;;
17228;SDS011;8731;50.364;8.958;2023-04-24T22:24:11;9.40;;;7.83;;
17228;SDS011;8731;50.364;8.958;2023-04-24T22:28:33;9.17;;;8.27;;
17228;SDS011;8731;50.364;8.958;2023-04-24T22:32:57;11.43;;;9.20;;
17228;SDS011;8731;50.364;8.958;2023-04-24T22:37:19;16.60;;;11.10;;
17228;SDS011;8731;50.364;8.958;2023-04-24T22:41:41;28.23;;;17.40;;
17228;SDS011;8731;50.364;8.958;2023-04-24T22:46:04;14.97;;;9.83;;
17228;SDS011;8731;50.364;8.958;2023-04-24T22:50:28;12.83;;;9.57;;
17228;SDS011;8731;50.364;8.958;2023-04-24T22:54:50;10.13;;;7.43;;
17228;SDS011;8731;50.364;8.958;2023-04-24T22:59:12;12.10;;;8.67;;
17228;SDS011;8731;50.364;8.958;2023-04-24T23:03:35;12.47;;;8.17;;
17228;SDS011;8731;50.364;8.958;2023-04-24T23:07:58;10.30;;;7.50;;
17228;SDS011;8731;50.364;8.958;2023-04-24T23:12:20;7.97;;;6.93;;
17228;SDS011;8731;50.364;8.958;2023-04-24T23:16:43;7.50;;;6.77;;
17228;SDS011;8731;50.364;8.958;2023-04-24T23:21:05;10.33;;;6.43;;
17228;SDS011;8731;50.364;8.958;2023-04-24T23:25:29;12.37;;;9.33;;
17228;SDS011;8731;50.364;8.958;2023-04-24T23:29:52;7.63;;;6.90;;
17228;SDS011;8731;50.364;8.958;2023-04-24T23:34:14;7.43;;;6.73;;
17228;SDS011;8731;50.364;8.958;2023-04-24T23:38:37;7.63;;;6.87;;
17228;SDS011;8731;50.364;8.958;2023-04-24T23:43:01;8.33;;;7.33;;
17228;SDS011;8731;50.364;8.958;2023-04-24T23:47:24;9.87;;;8.20;;
17228;SDS011;8731;50.364;8.958;2023-04-24T23:51:46;8.67;;;7.17;;
17228;SDS011;8731;50.364;8.958;2023-04-24T23:56:10;10.30;;;7.77;;
